createdAt,value
2024-05-09T00:00:40.440Z,80.14
2024-05-09T00:03:10.159Z,80.21
2024-05-09T00:05:40.854Z,80.63
2024-05-09T00:08:08.977Z,80.65
2024-05-09T00:10:38.543Z,80.98
2024-05-09T00:13:07.556Z,80.82
2024-05-09T00:15:35.551Z,80.93
2024-05-09T00:18:04.772Z,81.05
2024-05-09T00:20:37.785Z,81.37
2024-05-09T00:23:12.555Z,81.68
2024-05-09T00:25:43.808Z,81.92
2024-05-09T00:28:12.074Z,82.30
2024-05-09T00:30:39.120Z,82.71
2024-05-09T00:33:07.699Z,82.58
2024-05-09T00:35:36.250Z,82.37
2024-05-09T00:38:03.877Z,82.37
2024-05-09T00:40:39.811Z,81.94
2024-05-09T00:43:09.933Z,82.20
2024-05-09T00:45:37.013Z,82.62
2024-05-09T00:48:07.077Z,82.80
2024-05-09T00:50:37.961Z,82.59
2024-05-09T00:53:07.999Z,82.50
2024-05-09T00:55:37.000Z,82.45
2024-05-09T00:58:05.676Z,82.13
2024-05-09T01:00:38.847Z,82.11
2024-05-09T01:03:10.016Z,82.30
2024-05-09T01:05:39.331Z,82.22
2024-05-09T01:08:07.444Z,82.00
2024-05-09T01:10:36.115Z,82.25
2024-05-09T01:13:04.939Z,82.98
2024-05-09T01:15:32.730Z,83.04
2024-05-09T01:18:03.997Z,82.52
2024-05-09T01:20:40.278Z,82.63
2024-05-09T01:23:10.875Z,82.70
2024-05-09T01:25:38.048Z,82.84
2024-05-09T01:28:12.531Z,82.81
2024-05-09T01:30:39.515Z,82.66
2024-05-09T01:33:09.031Z,82.80
2024-05-09T01:35:38.921Z,82.64
2024-05-09T01:38:06.863Z,82.65
2024-05-09T01:40:39.924Z,82.96
2024-05-09T01:43:08.836Z,82.69
2024-05-09T01:45:37.736Z,82.78
2024-05-09T01:48:05.459Z,83.16
2024-05-09T01:50:38.589Z,83.11
2024-05-09T01:53:09.041Z,83.80
2024-05-09T01:55:36.216Z,83.76
2024-05-09T01:58:03.221Z,83.91
2024-05-09T02:00:42.086Z,84.17
2024-05-09T02:03:15.357Z,84.21
2024-05-09T02:05:46.597Z,83.64
2024-05-09T02:08:17.712Z,83.80
2024-05-09T02:10:45.428Z,83.25
2024-05-09T02:13:14.053Z,83.27
2024-05-09T02:15:40.710Z,83.40
2024-05-09T02:18:08.338Z,83.94
2024-05-09T02:20:38.087Z,84.42
2024-05-09T02:23:06.153Z,84.21
2024-05-09T02:25:33.406Z,83.94
2024-05-09T02:28:00.602Z,83.94
2024-05-09T02:30:37.853Z,83.98
2024-05-09T02:33:09.519Z,84.60
2024-05-09T02:35:40.274Z,84.68
2024-05-09T02:38:08.511Z,84.64
2024-05-09T02:40:38.022Z,84.65
2024-05-09T02:43:09.686Z,84.63
2024-05-09T02:45:37.625Z,84.64
2024-05-09T02:48:04.881Z,84.89
2024-05-09T02:50:37.894Z,84.83
2024-05-09T02:53:07.503Z,84.77
2024-05-09T02:55:34.704Z,85.25
2024-05-09T02:58:01.380Z,84.85
2024-05-09T03:00:36.699Z,84.75
2024-05-09T03:03:08.531Z,84.68
2024-05-09T03:05:36.619Z,84.17
2024-05-09T03:08:04.134Z,84.31
2024-05-09T03:10:35.954Z,84.85
2024-05-09T03:13:15.501Z,85.28
2024-05-09T03:15:43.476Z,85.33
2024-05-09T03:18:10.986Z,85.43
2024-05-09T03:20:39.065Z,85.20
2024-05-09T03:23:08.102Z,85.09
2024-05-09T03:25:35.681Z,84.65
2024-05-09T03:28:02.490Z,84.49
2024-05-09T03:30:36.281Z,84.01
2024-05-09T03:33:12.906Z,84.18
2024-05-09T03:35:40.711Z,84.44
2024-05-09T03:38:07.452Z,84.74
2024-05-09T03:40:34.182Z,85.35
2024-05-09T03:43:00.832Z,85.54
2024-05-09T03:45:27.472Z,85.84
2024-05-09T03:47:54.894Z,85.88
2024-05-09T03:50:29.708Z,85.45
2024-05-09T03:53:01.185Z,85.41
2024-05-09T03:55:28.248Z,85.65
2024-05-09T03:57:55.022Z,85.51
2024-05-09T04:00:31.692Z,85.82
2024-05-09T04:03:06.405Z,86.18
2024-05-09T04:05:35.099Z,86.63
2024-05-09T04:08:02.455Z,86.60
2024-05-09T04:10:33.554Z,87.04
2024-05-09T04:13:03.049Z,86.93
2024-05-09T04:15:30.398Z,86.99
2024-05-09T04:17:57.517Z,86.84
2024-05-09T04:20:34.345Z,86.65
2024-05-09T04:23:07.189Z,86.38
2024-05-09T04:25:35.126Z,86.22
2024-05-09T04:28:02.313Z,86.04
2024-05-09T04:30:36.987Z,85.96
2024-05-09T04:33:09.328Z,85.81
2024-05-09T04:35:38.550Z,85.86
2024-05-09T04:38:06.158Z,86.15
2024-05-09T04:40:36.114Z,86.12
2024-05-09T04:43:16.113Z,86.12
2024-05-09T04:45:43.479Z,85.96
2024-05-09T04:48:11.130Z,85.84
2024-05-09T04:50:39.463Z,85.46
2024-05-09T04:53:11.333Z,85.71
2024-05-09T04:55:39.436Z,85.58
2024-05-09T04:58:10.249Z,85.83
2024-05-09T05:00:39.919Z,85.26
2024-05-09T05:03:11.007Z,85.07
2024-05-09T05:05:58.344Z,84.88
2024-05-09T05:08:43.691Z,85.29
2024-05-09T05:11:29.162Z,85.33
2024-05-09T05:14:14.442Z,85.73
2024-05-09T05:17:00.554Z,86.07
2024-05-09T05:19:45.968Z,86.58
2024-05-09T05:22:31.080Z,86.11
2024-05-09T05:25:15.914Z,86.63
2024-05-09T05:28:01.377Z,86.71
2024-05-09T05:30:46.777Z,86.82
2024-05-09T05:33:31.920Z,87.06
2024-05-09T05:36:17.077Z,86.68
2024-05-09T05:39:02.078Z,87.30
2024-05-09T05:41:47.028Z,87.01
2024-05-09T05:44:32.086Z,86.80
2024-05-09T05:47:17.676Z,86.35
2024-05-09T05:50:03.787Z,87.61
2024-05-09T05:52:50.696Z,87.01
2024-05-09T05:55:40.608Z,87.96
2024-05-09T05:58:25.842Z,87.20
2024-05-09T06:01:10.907Z,86.93
2024-05-09T06:03:56.308Z,86.47
2024-05-09T06:06:41.822Z,87.33
2024-05-09T06:09:27.122Z,86.54
2024-05-09T06:12:12.191Z,86.00
2024-05-09T06:14:57.595Z,86.78
2024-05-09T06:17:42.578Z,85.68
2024-05-09T06:20:35.238Z,85.17
2024-05-09T06:23:23.066Z,85.64
2024-05-09T06:26:08.394Z,86.20
2024-05-09T06:28:54.001Z,86.33
2024-05-09T06:31:43.294Z,86.12
2024-05-09T06:34:28.426Z,86.38
2024-05-09T06:37:13.960Z,84.58
2024-05-09T06:39:40.904Z,83.86
2024-05-09T06:42:07.886Z,83.49
2024-05-09T06:44:35.001Z,82.44
2024-05-09T06:47:02.288Z,81.19
2024-05-09T06:49:31.641Z,80.82
2024-05-09T06:51:58.710Z,80.38
2024-05-09T06:54:25.711Z,79.65
2024-05-09T06:56:52.650Z,78.36
2024-05-09T06:59:19.842Z,78.49
2024-05-09T07:01:46.780Z,78.73
2024-05-09T07:04:13.918Z,78.35
2024-05-09T07:06:40.914Z,78.76
2024-05-09T07:09:07.879Z,78.67
2024-05-09T07:11:34.946Z,76.79
2024-05-09T07:14:02.084Z,76.74
2024-05-09T07:16:29.046Z,75.86
2024-05-09T07:18:56.328Z,74.56
2024-05-09T07:21:23.331Z,74.84
2024-05-09T07:23:50.133Z,74.50
2024-05-09T07:26:17.940Z,73.45
2024-05-09T07:28:44.658Z,72.60
2024-05-09T07:31:11.302Z,71.84
2024-05-09T07:33:38.031Z,71.07
2024-05-09T07:36:04.765Z,72.78
2024-05-09T07:38:31.513Z,75.51
2024-05-09T07:40:58.243Z,70.18
2024-05-09T07:43:24.948Z,69.14
2024-05-09T07:45:54.378Z,65.35
2024-05-09T07:52:38.121Z,64.90
2024-05-09T07:53:48.810Z,60.69
2024-05-09T07:56:21.090Z,59.76
2024-05-09T07:58:50.363Z,58.87
2024-05-09T08:01:17.240Z,58.35
2024-05-09T08:03:44.776Z,58.12
2024-05-09T08:06:11.637Z,57.50
2024-05-09T08:08:38.258Z,59.93
2024-05-09T08:11:06.378Z,58.94
2024-05-09T08:13:33.133Z,57.55
2024-05-09T08:15:59.860Z,54.67
2024-05-09T08:18:26.987Z,53.23
2024-05-09T08:20:53.834Z,52.63
2024-05-09T08:23:20.486Z,52.22
2024-05-09T08:25:48.006Z,52.56
2024-05-09T08:28:15.501Z,50.58
2024-05-09T08:30:42.938Z,49.64
2024-05-09T08:33:10.225Z,48.58
2024-05-09T08:35:37.140Z,47.26
2024-05-09T08:38:07.347Z,46.78
2024-05-09T08:40:37.030Z,46.62
2024-05-09T08:43:11.039Z,47.75
2024-05-09T08:45:42.701Z,47.57
2024-05-09T08:48:16.652Z,46.86
2024-05-09T08:50:45.162Z,44.61
2024-05-09T08:53:14.682Z,44.22
2024-05-09T08:55:43.475Z,43.73
2024-05-09T08:58:16.736Z,44.83
2024-05-09T09:00:45.031Z,42.06
2024-05-09T09:03:16.822Z,44.35
2024-05-09T09:05:57.416Z,43.10
2024-05-09T09:08:26.148Z,43.15
2024-05-09T09:10:58.113Z,41.55
2024-05-09T09:13:25.679Z,40.80
2024-05-09T09:15:57.410Z,41.05
2024-05-09T09:18:26.432Z,41.81
2024-05-09T09:20:53.668Z,41.95
2024-05-09T09:23:20.845Z,41.11
2024-05-09T09:25:47.928Z,43.41
2024-05-09T09:28:15.189Z,41.03
2024-05-09T09:30:42.955Z,38.72
2024-05-09T09:33:10.602Z,38.87
2024-05-09T09:35:39.850Z,38.23
2024-05-09T09:38:08.005Z,38.71
2024-05-09T09:40:42.500Z,43.06
2024-05-09T09:43:22.349Z,41.07
2024-05-09T09:45:51.000Z,40.05
2024-05-09T09:48:20.214Z,40.41
2024-05-09T09:50:47.672Z,39.95
2024-05-09T09:53:16.361Z,40.11
2024-05-09T09:55:43.482Z,38.54
2024-05-09T09:58:13.483Z,38.97
2024-05-09T10:00:41.959Z,40.36
2024-05-09T10:03:09.383Z,42.04
2024-05-09T10:05:37.442Z,42.31
2024-05-09T10:08:06.931Z,41.52
2024-05-09T10:10:35.222Z,42.91
2024-05-09T10:13:06.921Z,43.33
2024-05-09T10:15:48.474Z,42.98
2024-05-09T10:18:15.899Z,43.77
2024-05-09T10:20:43.875Z,43.02
2024-05-09T10:23:30.632Z,42.55
2024-05-09T10:25:59.303Z,39.56
2024-05-09T10:28:27.762Z,39.84
2024-05-09T10:31:11.369Z,40.11
2024-05-09T10:33:52.649Z,41.14
2024-05-09T10:36:24.719Z,40.76
2024-05-09T10:38:55.179Z,42.27
2024-05-09T10:41:23.227Z,41.49
2024-05-09T10:43:51.422Z,40.63
2024-05-09T10:46:19.059Z,39.65
2024-05-09T10:48:47.689Z,38.72
2024-05-09T10:51:15.262Z,38.50
2024-05-09T10:53:46.609Z,39.25
2024-05-09T10:56:14.425Z,38.08
2024-05-09T10:58:41.738Z,38.68
2024-05-09T11:01:09.812Z,36.98
2024-05-09T11:03:38.266Z,39.06
2024-05-09T11:06:06.255Z,38.15
2024-05-09T11:08:34.059Z,38.57
2024-05-09T11:11:03.027Z,39.02
2024-05-09T11:13:31.390Z,38.37
2024-05-09T11:15:59.971Z,39.22
2024-05-09T11:18:30.871Z,37.70
2024-05-09T11:21:00.939Z,38.28
2024-05-09T11:23:30.131Z,38.62
2024-05-09T11:25:58.213Z,38.27
2024-05-09T11:28:28.406Z,38.64
2024-05-09T11:31:10.199Z,37.35
2024-05-09T11:33:47.098Z,35.96
2024-05-09T11:36:14.799Z,34.91
2024-05-09T11:38:41.972Z,38.74
2024-05-09T11:41:08.944Z,36.57
2024-05-09T11:43:35.891Z,36.50
2024-05-09T11:46:03.905Z,35.55
2024-05-09T11:48:31.689Z,35.62
2024-05-09T11:50:58.949Z,39.00
2024-05-09T11:53:25.956Z,37.46
2024-05-09T11:55:53.243Z,38.31
2024-05-09T11:58:22.710Z,37.75
2024-05-09T12:00:50.236Z,37.26
2024-05-09T12:03:17.338Z,38.22
2024-05-09T12:05:44.461Z,38.42
2024-05-09T12:08:12.310Z,37.61
2024-05-09T12:10:39.490Z,38.70
2024-05-09T12:13:07.444Z,39.37
2024-05-09T12:15:38.519Z,40.34
2024-05-09T12:18:07.938Z,41.35
2024-05-09T12:20:38.611Z,42.44
2024-05-09T12:23:09.624Z,41.82
2024-05-09T12:25:39.179Z,41.17
2024-05-09T12:28:07.748Z,40.71
2024-05-09T12:30:38.728Z,40.59
2024-05-09T12:33:08.699Z,40.25
2024-05-09T12:35:36.270Z,40.74
2024-05-09T12:38:03.984Z,41.34
2024-05-09T12:40:36.023Z,43.01
2024-05-09T12:43:10.124Z,42.36
2024-05-09T12:45:38.711Z,42.17
2024-05-09T12:48:08.482Z,42.55
2024-05-09T12:50:38.894Z,42.86
2024-05-09T12:53:06.013Z,42.79
2024-05-09T12:55:41.183Z,43.30
2024-05-09T12:58:18.471Z,43.29
2024-05-09T13:00:46.324Z,43.09
2024-05-09T13:03:13.888Z,44.24
2024-05-09T13:05:41.509Z,43.74
2024-05-09T13:08:08.758Z,42.91
2024-05-09T13:10:36.201Z,41.77
2024-05-09T13:13:03.381Z,41.86
2024-05-09T13:15:31.124Z,41.68
2024-05-09T13:18:02.228Z,41.28
2024-05-09T13:20:34.247Z,42.05
2024-05-09T13:23:05.370Z,43.14
2024-05-09T13:25:34.820Z,42.81
2024-05-09T13:28:06.315Z,42.27
2024-05-09T13:30:39.779Z,42.75
2024-05-09T13:33:11.672Z,43.40
2024-05-09T13:35:44.998Z,44.45
2024-05-09T13:38:15.214Z,43.28
2024-05-09T13:40:42.075Z,40.73
2024-05-09T13:43:08.988Z,41.06
2024-05-09T13:45:35.738Z,41.39
2024-05-09T13:48:03.978Z,40.90
2024-05-09T13:50:35.123Z,42.43
2024-05-09T13:53:05.800Z,44.44
2024-05-09T13:55:33.587Z,45.33
2024-05-09T13:58:00.868Z,44.38
2024-05-09T14:00:41.318Z,44.63
2024-05-09T14:03:13.874Z,44.21
2024-05-09T14:05:41.044Z,44.25
2024-05-09T14:08:08.599Z,44.56
2024-05-09T14:10:35.567Z,43.41
2024-05-09T14:13:02.365Z,43.38
2024-05-09T14:15:29.189Z,43.44
2024-05-09T14:17:55.898Z,45.42
2024-05-09T14:20:30.679Z,44.57
2024-05-09T14:22:59.961Z,44.36
2024-05-09T14:25:31.766Z,45.13
2024-05-09T14:27:58.713Z,44.03
2024-05-09T14:30:34.089Z,43.45
2024-05-09T14:33:04.640Z,43.60
2024-05-09T14:35:31.555Z,44.11
2024-05-09T14:38:00.152Z,44.03
2024-05-09T14:40:37.098Z,44.33
2024-05-09T14:43:10.200Z,44.10
2024-05-09T14:45:37.070Z,43.83
2024-05-09T14:48:04.354Z,45.22
2024-05-09T14:50:36.622Z,44.99
2024-05-09T14:53:07.551Z,45.65
2024-05-09T14:55:37.071Z,46.37
2024-05-09T14:58:08.917Z,45.45
2024-05-09T15:00:41.511Z,45.42
2024-05-09T15:03:11.366Z,46.12
2024-05-09T15:05:38.212Z,46.38
2024-05-09T15:08:08.637Z,45.96
2024-05-09T15:10:36.887Z,45.90
2024-05-09T15:13:06.062Z,47.63
2024-05-09T15:15:34.093Z,49.67
2024-05-09T15:18:01.095Z,49.95
2024-05-09T15:20:34.303Z,50.70
2024-05-09T15:23:04.279Z,52.39
2024-05-09T15:25:31.105Z,51.22
2024-05-09T15:27:57.919Z,51.03
2024-05-09T15:30:30.676Z,54.02
2024-05-09T15:33:00.063Z,52.85
2024-05-09T15:35:27.144Z,54.60
2024-05-09T15:37:54.339Z,54.19
2024-05-09T15:40:31.001Z,53.16
2024-05-09T15:43:05.831Z,52.93
2024-05-09T15:45:33.964Z,53.90
2024-05-09T15:48:02.250Z,54.09
2024-05-09T15:50:36.891Z,54.34
2024-05-09T15:53:08.567Z,54.52
2024-05-09T15:55:36.487Z,54.84
2024-05-09T15:58:04.727Z,55.05
2024-05-09T16:00:38.077Z,55.51
2024-05-09T16:03:09.748Z,55.73
2024-05-09T16:05:37.602Z,55.80
2024-05-09T16:08:05.931Z,55.21
2024-05-09T16:10:34.603Z,55.41
2024-05-09T16:13:03.214Z,55.91
2024-05-09T16:15:31.159Z,56.31
2024-05-09T16:17:58.439Z,56.95
2024-05-09T16:20:34.396Z,57.77
2024-05-09T16:23:07.469Z,57.93
2024-05-09T16:25:34.595Z,58.88
2024-05-09T16:28:05.030Z,58.67
2024-05-09T16:30:43.922Z,59.04
2024-05-09T16:33:11.787Z,59.67
2024-05-09T16:35:39.433Z,60.39
2024-05-09T16:38:06.452Z,62.03
2024-05-09T16:40:38.169Z,61.83
2024-05-09T16:43:11.218Z,62.21
2024-05-09T16:45:40.527Z,63.64
2024-05-09T16:48:08.079Z,65.29
2024-05-09T16:50:35.905Z,64.96
2024-05-09T16:53:04.898Z,64.65
2024-05-09T16:55:32.490Z,65.50
2024-05-09T16:57:59.438Z,66.37
2024-05-09T17:00:36.182Z,65.67
2024-05-09T17:03:09.777Z,65.48
2024-05-09T17:05:37.356Z,65.29
2024-05-09T17:08:04.903Z,65.47
2024-05-09T17:10:34.103Z,66.17
2024-05-09T17:13:03.851Z,66.24
2024-05-09T17:15:31.866Z,65.66
2024-05-09T17:17:58.812Z,66.17
2024-05-09T17:20:32.291Z,66.69
2024-05-09T17:23:02.672Z,66.49
2024-05-09T17:25:29.545Z,65.94
2024-05-09T17:27:56.882Z,65.74
2024-05-09T17:30:32.190Z,66.13
2024-05-09T17:33:04.149Z,65.91
2024-05-09T17:35:31.713Z,65.85
2024-05-09T17:37:59.692Z,65.80
2024-05-09T17:40:32.716Z,65.76
2024-05-09T17:43:03.196Z,66.12
2024-05-09T17:45:30.431Z,66.12
2024-05-09T17:47:57.608Z,66.55
2024-05-09T17:50:31.201Z,66.30
2024-05-09T17:53:02.216Z,66.73
2024-05-09T17:55:29.108Z,67.07
2024-05-09T17:57:55.980Z,66.57
2024-05-09T18:00:33.084Z,67.05
2024-05-09T18:03:05.624Z,67.29
2024-05-09T18:05:32.605Z,68.26
2024-05-09T18:07:59.963Z,68.12
2024-05-09T18:10:33.790Z,67.96
2024-05-09T18:13:05.574Z,68.08
2024-05-09T18:15:32.826Z,67.74
2024-05-09T18:17:59.863Z,67.41
2024-05-09T18:20:37.201Z,67.66
2024-05-09T18:23:09.831Z,67.44
2024-05-09T18:25:36.515Z,68.04
2024-05-09T18:28:03.483Z,67.51
2024-05-09T18:30:34.945Z,67.32
2024-05-09T18:33:05.875Z,67.84
2024-05-09T18:35:34.283Z,67.70
2024-05-09T18:38:01.268Z,67.96
2024-05-09T18:40:34.118Z,68.29
2024-05-09T18:43:05.624Z,67.66
2024-05-09T18:45:34.074Z,68.04
2024-05-09T18:48:01.381Z,68.40
2024-05-09T18:50:34.965Z,68.42
2024-05-09T18:53:06.271Z,68.99
2024-05-09T18:55:34.826Z,68.96
2024-05-09T18:58:01.907Z,69.08
2024-05-09T19:00:35.059Z,69.21
2024-05-09T19:03:09.120Z,69.48
2024-05-09T19:05:39.013Z,69.21
2024-05-09T19:08:07.443Z,69.38
2024-05-09T19:10:35.993Z,69.68
2024-05-09T19:13:08.472Z,70.35
2024-05-09T19:15:39.504Z,70.37
2024-05-09T19:18:07.451Z,71.01
2024-05-09T19:20:36.320Z,71.26
2024-05-09T19:23:05.420Z,71.91
2024-05-09T19:25:32.996Z,71.93
2024-05-09T19:28:00.730Z,72.47
2024-05-09T19:30:36.866Z,72.70
2024-05-09T19:33:08.732Z,73.02
2024-05-09T19:35:36.240Z,73.48
2024-05-09T19:38:03.758Z,73.62
2024-05-09T19:40:33.057Z,73.76
2024-05-09T19:43:02.969Z,74.33
2024-05-09T19:45:32.159Z,74.37
2024-05-09T19:47:59.441Z,74.59
2024-05-09T19:50:36.174Z,74.98
2024-05-09T19:53:08.632Z,75.03
2024-05-09T19:55:35.701Z,75.03
2024-05-09T19:58:05.312Z,75.48
2024-05-09T20:00:39.755Z,75.80
2024-05-09T20:03:09.914Z,75.87
2024-05-09T20:05:37.898Z,76.06
2024-05-09T20:08:05.966Z,76.02
2024-05-09T20:10:35.376Z,76.11
2024-05-09T20:13:05.055Z,75.82
2024-05-09T20:15:34.574Z,76.05
2024-05-09T20:18:01.627Z,76.25
2024-05-09T20:20:36.321Z,76.07
2024-05-09T20:23:06.919Z,76.50
2024-05-09T20:25:33.556Z,76.74
2024-05-09T20:28:00.302Z,76.89
2024-05-09T20:30:32.078Z,76.77
2024-05-09T20:33:02.853Z,77.21
2024-05-09T20:35:32.294Z,77.28
2024-05-09T20:37:59.475Z,77.32
2024-05-09T20:40:32.424Z,77.36
2024-05-09T20:43:02.639Z,77.78
2024-05-09T20:45:29.325Z,77.64
2024-05-09T20:47:56.441Z,77.92
2024-05-09T20:50:32.055Z,77.77
2024-05-09T20:53:05.071Z,78.18
2024-05-09T20:55:31.716Z,78.34
2024-05-09T20:57:58.635Z,78.72
2024-05-09T21:00:34.296Z,78.90
2024-05-09T21:03:07.038Z,79.23
2024-05-09T21:05:34.963Z,79.41
2024-05-09T21:08:02.222Z,79.87
2024-05-09T21:10:32.816Z,79.68
2024-05-09T21:13:02.677Z,79.93
2024-05-09T21:15:30.121Z,80.24
2024-05-09T21:17:56.905Z,80.30
2024-05-09T21:20:30.473Z,80.71
2024-05-09T21:22:58.920Z,80.54
2024-05-09T21:25:25.731Z,80.66
2024-05-09T21:27:52.666Z,80.93
2024-05-09T21:30:31.621Z,80.89
2024-05-09T21:33:12.126Z,80.89
2024-05-09T21:35:41.181Z,81.22
2024-05-09T21:38:08.127Z,81.55
2024-05-09T21:40:36.591Z,81.73
2024-05-09T21:43:05.140Z,81.86
2024-05-09T21:45:33.148Z,82.00
2024-05-09T21:48:00.121Z,82.24
2024-05-09T21:50:36.088Z,82.38
2024-05-09T21:53:07.093Z,82.47
2024-05-09T21:55:34.217Z,82.30
2024-05-09T21:58:01.068Z,82.88
2024-05-09T22:00:35.398Z,82.69
2024-05-09T22:03:05.699Z,82.39
2024-05-09T22:05:32.970Z,82.59
2024-05-09T22:08:00.171Z,83.18
2024-05-09T22:10:33.248Z,82.69
2024-05-09T22:13:02.379Z,82.47
2024-05-09T22:15:29.500Z,83.36
2024-05-09T22:17:57.553Z,83.27
2024-05-09T22:20:34.249Z,83.27
2024-05-09T22:23:05.128Z,83.50
2024-05-09T22:25:32.818Z,83.85
2024-05-09T22:28:01.901Z,83.73
2024-05-09T22:30:36.784Z,84.23
2024-05-09T22:33:11.195Z,84.66
2024-05-09T22:35:40.430Z,84.75
2024-05-09T22:38:08.176Z,85.24
2024-05-09T22:43:05.435Z,84.89
2024-05-09T22:45:32.760Z,84.53
2024-05-09T22:48:00.135Z,84.86
2024-05-09T22:50:32.610Z,84.71
2024-05-09T22:53:00.732Z,84.53
2024-05-09T22:55:28.499Z,84.32
2024-05-09T22:57:55.823Z,84.90
2024-05-09T23:00:30.978Z,84.52
2024-05-09T23:03:00.728Z,84.47
2024-05-09T23:05:28.317Z,84.62
2024-05-09T23:07:55.505Z,84.60
2024-05-09T23:10:30.871Z,84.69
2024-05-09T23:13:02.616Z,84.46
2024-05-09T23:15:29.806Z,84.54
2024-05-09T23:17:57.436Z,84.86
2024-05-09T23:22:54.711Z,84.54
2024-05-09T23:25:21.704Z,84.72
2024-05-09T23:27:48.848Z,85.36
2024-05-09T23:30:25.563Z,85.44
2024-05-09T23:32:59.729Z,85.72
2024-05-09T23:35:27.002Z,86.23
2024-05-09T23:37:53.952Z,86.57
2024-05-09T23:40:23.336Z,86.61
2024-05-09T23:42:51.009Z,86.50
2024-05-09T23:45:18.086Z,86.50
2024-05-09T23:47:45.198Z,86.50
2024-05-09T23:50:17.024Z,86.52
2024-05-09T23:52:50.654Z,86.65
2024-05-09T23:55:17.871Z,86.50
2024-05-09T23:57:45.107Z,86.75
